Time;durP1;ratioP1;P1;durP2;ratioP2;P2;SDS_P1;SDS_P2;PMS_P1;PMS_P2;Temp;Humidity;BMP_temperature;BMP_pressure;BME280_temperature;BME280_humidity;BME280_pressure;Samples;Min_cycle;Max_cycle;Signal;HPM_P1;HPM_P2
2023/11/04 00:02:07;;;;;;;;;;;15.00;68.40;;;;;;4990516;28;87461;-43
2023/11/04 00:04:32;;;;;;;;;;;15.00;68.50;;;;;;4991536;28;88076;-42
2023/11/04 00:07:00;;;;;;;;;;;15.00;68.40;;;;;;4993795;28;87007;-42
2023/11/04 00:09:26;;;;;;;;;;;15.00;68.30;;;;;;4992900;28;88991;-44
2023/11/04 00:11:51;;;;;;;;;;;14.90;68.40;;;;;;4992970;28;89190;-42
2023/11/04 00:14:17;;;;;;;;;;;15.00;68.60;;;;;;4993161;28;88721;-43
2023/11/04 00:16:42;;;;;;;;;;;15.00;68.40;;;;;;4989395;28;89002;-43
2023/11/04 00:19:08;;;;;;;;;;;15.00;68.60;;;;;;4993491;28;87103;-42
2023/11/04 00:21:33;;;;;;;;;;;15.00;68.60;;;;;;4991189;28;87446;-43
2023/11/04 00:23:59;;;;;;;;;;;15.00;68.50;;;;;;4991342;28;87150;-42
2023/11/04 00:26:25;;;;;;;;;;;15.00;68.60;;;;;;4992366;28;87116;-41
2023/11/04 00:28:50;;;;;;;;;;;15.00;68.60;;;;;;4990676;28;87005;-43
2023/11/04 00:31:16;;;;;;;;;;;15.00;68.80;;;;;;4989242;28;93465;-42
2023/11/04 00:33:41;;;;;;;;;;;14.90;68.70;;;;;;4990803;28;91506;-42
2023/11/04 00:36:08;;;;;;;;;;;14.90;69.00;;;;;;4988874;28;93224;-42
2023/11/04 00:38:34;;;;;;;;;;;14.90;68.80;;;;;;4987590;28;92200;-43
2023/11/04 00:40:59;;;;;;;;;;;14.90;68.70;;;;;;4987745;28;92987;-42
2023/11/04 00:43:25;;;;;;;;;;;14.90;68.70;;;;;;4987890;28;93258;-45
2023/11/04 00:45:50;;;;;;;;;;;14.90;68.80;;;;;;4987277;28;92138;-42
2023/11/04 00:48:16;;;;;;;;;;;14.90;68.80;;;;;;4989037;28;92435;-43
2023/11/04 00:50:41;;;;;;;;;;;14.90;68.60;;;;;;4985643;28;93109;-44
2023/11/04 00:53:07;;;;;;;;;;;14.90;68.80;;;;;;4990358;28;92272;-43
2023/11/04 00:55:33;;;;;;;;;;;14.90;68.70;;;;;;4993311;28;93784;-43
2023/11/04 00:57:58;;;;;;;;;;;14.90;68.70;;;;;;4992279;28;91426;-42
2023/11/04 01:00:26;;;;;;;;;;;14.90;68.70;;;;;;4991840;28;92157;-43
2023/11/04 01:02:55;;;;;;;;;;;14.90;68.70;;;;;;4989483;28;94437;-42
2023/11/04 01:05:22;;;;;;;;;;;14.90;68.60;;;;;;4991155;28;95047;-42
2023/11/04 01:07:48;;;;;;;;;;;14.90;68.70;;;;;;4992355;28;93381;-43
2023/11/04 01:10:13;;;;;;;;;;;14.90;68.70;;;;;;4990289;28;92984;-42
2023/11/04 01:12:40;;;;;;;;;;;14.90;68.80;;;;;;4991167;28;92039;-43
2023/11/04 01:15:06;;;;;;;;;;;14.80;68.70;;;;;;4991715;28;93642;-42
2023/11/04 01:17:31;;;;;;;;;;;14.90;68.80;;;;;;4992451;28;92631;-44
2023/11/04 01:19:57;;;;;;;;;;;14.90;68.70;;;;;;4990522;28;92508;-43
2023/11/04 01:22:22;;;;;;;;;;;14.90;68.90;;;;;;4992540;28;92313;-42
2023/11/04 01:24:48;;;;;;;;;;;14.80;68.80;;;;;;4990083;28;92206;-44
2023/11/04 01:27:13;;;;;;;;;;;14.90;68.70;;;;;;4991617;28;92468;-43
2023/11/04 01:29:39;;;;;;;;;;;14.90;69.20;;;;;;4989436;28;94135;-42
2023/11/04 01:32:05;;;;;;;;;;;14.90;68.70;;;;;;4990383;28;92131;-43
2023/11/04 01:34:31;;;;;;;;;;;14.80;68.80;;;;;;4991292;28;93846;-44
2023/11/04 01:36:56;;;;;;;;;;;14.80;68.80;;;;;;4991850;28;92914;-42
2023/11/04 01:39:22;;;;;;;;;;;14.90;68.70;;;;;;4991903;28;92983;-42
2023/11/04 01:41:48;;;;;;;;;;;14.80;68.80;;;;;;4991324;28;93165;-42
2023/11/04 01:44:14;;;;;;;;;;;14.90;69.20;;;;;;4989774;28;92269;-44
2023/11/04 01:46:41;;;;;;;;;;;14.80;69.50;;;;;;4991131;28;92439;-42
2023/11/04 01:49:07;;;;;;;;;;;14.90;69.30;;;;;;4990387;28;93039;-42
2023/11/04 01:51:34;;;;;;;;;;;14.80;69.30;;;;;;4988789;28;92314;-42
2023/11/04 01:53:59;;;;;;;;;;;14.80;69.50;;;;;;4991606;28;92977;-41
2023/11/04 01:56:27;;;;;;;;;;;14.80;69.20;;;;;;4988510;28;93263;-42
2023/11/04 01:58:54;;;;;;;;;;;14.90;69.60;;;;;;4990885;28;92248;-42
2023/11/04 02:01:20;;;;;;;;;;;14.80;69.30;;;;;;4993049;28;92492;-41
2023/11/04 02:03:46;;;;;;;;;;;14.80;69.30;;;;;;4989596;28;92167;-42
2023/11/04 02:06:11;;;;;;;;;;;14.80;69.40;;;;;;4990056;28;92566;-42
2023/11/04 02:08:37;;;;;;;;;;;14.80;69.50;;;;;;4991626;28;92816;-42
2023/11/04 02:11:03;;;;;;;;;;;14.80;69.60;;;;;;4989182;28;91443;-42
2023/11/04 02:13:29;;;;;;;;;;;14.90;69.40;;;;;;4991131;28;92149;-42
2023/11/04 02:15:55;;;;;;;;;;;14.80;69.60;;;;;;4989388;28;92279;-42
2023/11/04 02:18:20;;;;;;;;;;;14.80;69.20;;;;;;4989419;28;93479;-42
2023/11/04 02:20:47;;;;;;;;;;;14.80;69.30;;;;;;4992749;28;92510;-41
2023/11/04 02:23:13;;;;;;;;;;;14.80;69.10;;;;;;4991330;28;92228;-41
2023/11/04 02:25:39;;;;;;;;;;;14.80;69.10;;;;;;4988449;28;92459;-43
2023/11/04 02:28:05;;;;;;;;;;;14.80;69.10;;;;;;4990917;28;92635;-42
2023/11/04 02:30:31;;;;;;;;;;;14.80;69.20;;;;;;4989024;28;92103;-41
2023/11/04 02:32:57;;;;;;;;;;;14.80;69.10;;;;;;4990299;28;92239;-41
2023/11/04 02:35:23;;;;;;;;;;;14.80;69.20;;;;;;4989399;28;92436;-41
2023/11/04 02:37:50;;;;;;;;;;;14.80;69.10;;;;;;4988977;28;92160;-42
2023/11/04 02:40:15;;;;;;;;;;;14.80;69.20;;;;;;4991367;28;93978;-42
2023/11/04 02:42:41;;;;;;;;;;;14.80;69.00;;;;;;4989976;28;94087;-41
2023/11/04 02:45:07;;;;;;;;;;;14.80;69.20;;;;;;4991005;28;93373;-41
2023/11/04 02:47:32;;;;;;;;;;;14.80;69.20;;;;;;4988657;28;93154;-42
2023/11/04 02:49:58;;;;;;;;;;;14.80;69.00;;;;;;4991178;28;92153;-42
2023/11/04 02:52:23;;;;;;;;;;;14.70;69.10;;;;;;4989087;28;92736;-42
2023/11/04 02:54:49;;;;;;;;;;;14.70;69.30;;;;;;4990196;28;93098;-42
2023/11/04 02:57:15;;;;;;;;;;;14.70;69.00;;;;;;4988117;28;92314;-41
2023/11/04 02:59:40;;;;;;;;;;;14.70;69.00;;;;;;4991786;28;92396;-41
2023/11/04 03:02:06;;;;;;;;;;;14.70;69.00;;;;;;4987728;28;93268;-43
2023/11/04 03:04:32;;;;;;;;;;;14.80;69.00;;;;;;4993354;28;92321;-41
2023/11/04 03:06:57;;;;;;;;;;;14.70;69.10;;;;;;4987698;28;94010;-44
2023/11/04 03:09:23;;;;;;;;;;;14.70;69.10;;;;;;4989257;28;92565;-42
2023/11/04 03:11:49;;;;;;;;;;;14.70;69.10;;;;;;4990063;28;93776;-41
2023/11/04 03:14:14;;;;;;;;;;;14.70;69.10;;;;;;4987612;28;93171;-42
2023/11/04 03:16:40;;;;;;;;;;;14.70;69.10;;;;;;4990500;28;92330;-42
2023/11/04 03:19:05;;;;;;;;;;;14.70;69.20;;;;;;4987886;28;92450;-42
2023/11/04 03:21:31;;;;;;;;;;;14.60;69.00;;;;;;4988955;28;93269;-42
2023/11/04 03:23:57;;;;;;;;;;;14.70;69.10;;;;;;4989423;28;91478;-42
2023/11/04 03:26:22;;;;;;;;;;;14.70;69.10;;;;;;4991697;28;92072;-42
2023/11/04 03:28:48;;;;;;;;;;;14.70;69.00;;;;;;4989638;28;92196;-42
2023/11/04 03:31:13;;;;;;;;;;;14.60;69.10;;;;;;4989439;28;92830;-42
2023/11/04 03:33:39;;;;;;;;;;;14.70;69.10;;;;;;4986818;28;93220;-43
2023/11/04 03:36:04;;;;;;;;;;;14.70;69.10;;;;;;4986352;28;92203;-41
2023/11/04 03:38:30;;;;;;;;;;;14.60;69.00;;;;;;4989904;28;93414;-42
2023/11/04 03:40:56;;;;;;;;;;;14.70;69.10;;;;;;4995234;28;96543;-42
2023/11/04 03:43:21;;;;;;;;;;;14.70;69.10;;;;;;4988746;28;92721;-42
2023/11/04 03:45:47;;;;;;;;;;;14.60;69.00;;;;;;4989662;28;92390;-42
2023/11/04 03:48:13;;;;;;;;;;;14.70;69.00;;;;;;4990883;28;92342;-42
2023/11/04 03:50:38;;;;;;;;;;;14.60;69.00;;;;;;4989797;28;93296;-42
2023/11/04 03:53:04;;;;;;;;;;;14.60;69.00;;;;;;4990115;28;93117;-42
2023/11/04 03:55:29;;;;;;;;;;;14.60;68.90;;;;;;4986991;28;93049;-43
2023/11/04 03:57:55;;;;;;;;;;;14.60;69.00;;;;;;4989520;28;93325;-42
2023/11/04 04:00:20;;;;;;;;;;;14.60;68.90;;;;;;4987990;28;92962;-42
2023/11/04 04:02:46;;;;;;;;;;;14.60;69.00;;;;;;4988623;28;92156;-42
2023/11/04 04:05:11;;;;;;;;;;;14.60;69.00;;;;;;4989581;28;92394;-43
2023/11/04 04:07:37;;;;;;;;;;;14.60;69.00;;;;;;4987543;28;92204;-42
2023/11/04 04:10:02;;;;;;;;;;;14.60;68.90;;;;;;4993420;28;92028;-44
2023/11/04 04:12:28;;;;;;;;;;;14.60;68.90;;;;;;4986710;28;92356;-43
2023/11/04 04:14:53;;;;;;;;;;;14.60;68.90;;;;;;4989616;28;92155;-42
2023/11/04 04:17:19;;;;;;;;;;;14.60;69.00;;;;;;4988064;28;92439;-42
2023/11/04 04:19:46;;;;;;;;;;;14.60;69.00;;;;;;4987377;28;94155;-42
2023/11/04 04:22:11;;;;;;;;;;;14.60;69.00;;;;;;4988741;28;92165;-42
2023/11/04 04:24:38;;;;;;;;;;;14.60;68.90;;;;;;4987231;28;92379;-41
2023/11/04 04:27:04;;;;;;;;;;;14.60;69.00;;;;;;4989371;28;93054;-41
2023/11/04 04:29:30;;;;;;;;;;;14.50;69.20;;;;;;4992888;28;92141;-41
2023/11/04 04:31:56;;;;;;;;;;;14.60;69.40;;;;;;4991868;28;94699;-43
2023/11/04 04:34:22;;;;;;;;;;;14.60;69.40;;;;;;4991555;28;92501;-41
2023/11/04 04:36:48;;;;;;;;;;;14.50;69.20;;;;;;4991118;28;92366;-41
2023/11/04 04:39:13;;;;;;;;;;;14.60;69.30;;;;;;4992143;28;92999;-41
2023/11/04 04:41:39;;;;;;;;;;;14.60;69.50;;;;;;4990385;28;92163;-41
2023/11/04 04:44:04;;;;;;;;;;;14.60;69.20;;;;;;4992540;28;93109;-40
2023/11/04 04:46:31;;;;;;;;;;;14.60;69.50;;;;;;4989659;28;93156;-41
2023/11/04 04:48:57;;;;;;;;;;;14.50;69.40;;;;;;4992347;28;92901;-41
2023/11/04 04:51:23;;;;;;;;;;;14.50;69.50;;;;;;4993363;28;92438;-41
2023/11/04 04:53:49;;;;;;;;;;;14.60;69.30;;;;;;4990509;28;92246;-41
2023/11/04 04:56:15;;;;;;;;;;;14.50;69.30;;;;;;4992472;28;93041;-41
2023/11/04 04:58:41;;;;;;;;;;;14.50;69.30;;;;;;4989321;28;93018;-42
2023/11/04 05:01:08;;;;;;;;;;;14.50;69.20;;;;;;4990275;28;91300;-41
2023/11/04 05:03:33;;;;;;;;;;;14.50;69.40;;;;;;4991990;28;92489;-41
2023/11/04 05:05:59;;;;;;;;;;;14.50;69.30;;;;;;4990425;28;93067;-41
2023/11/04 05:08:24;;;;;;;;;;;14.50;69.20;;;;;;4990468;28;93081;-41
2023/11/04 05:10:50;;;;;;;;;;;14.50;69.20;;;;;;4990851;28;93351;-41
2023/11/04 05:13:17;;;;;;;;;;;14.50;69.10;;;;;;4994709;28;92944;-41
2023/11/04 05:15:43;;;;;;;;;;;14.50;69.10;;;;;;4989536;28;92327;-41
2023/11/04 05:18:09;;;;;;;;;;;14.50;69.30;;;;;;4992369;28;93101;-42
2023/11/04 05:20:35;;;;;;;;;;;14.50;69.10;;;;;;4990206;28;92146;-41
2023/11/04 05:23:01;;;;;;;;;;;14.50;69.10;;;;;;4992442;28;92145;-44
2023/11/04 05:25:27;;;;;;;;;;;14.50;69.20;;;;;;4990813;28;91663;-43
2023/11/04 05:27:52;;;;;;;;;;;14.50;69.10;;;;;;4991527;28;92021;-42
2023/11/04 05:30:19;;;;;;;;;;;14.50;69.10;;;;;;4989694;28;92447;-41
2023/11/04 05:32:44;;;;;;;;;;;14.50;69.00;;;;;;4990806;28;95000;-41
2023/11/04 05:35:10;;;;;;;;;;;14.50;69.00;;;;;;4990554;28;92159;-42
2023/11/04 05:37:35;;;;;;;;;;;14.50;69.00;;;;;;4985339;28;94965;-41
2023/11/04 05:40:03;;;;;;;;;;;14.40;68.90;;;;;;4989963;28;92150;-42
2023/11/04 05:42:28;;;;;;;;;;;14.40;69.00;;;;;;4988539;28;95711;-42
2023/11/04 05:44:57;;;;;;;;;;;14.40;69.00;;;;;;4982670;28;92979;-41
2023/11/04 05:47:22;;;;;;;;;;;14.40;68.80;;;;;;4985614;28;93545;-41
2023/11/04 05:49:48;;;;;;;;;;;14.40;69.00;;;;;;4989615;28;92551;-42
2023/11/04 05:52:13;;;;;;;;;;;14.40;69.00;;;;;;4989829;28;93248;-42
2023/11/04 05:54:39;;;;;;;;;;;14.40;68.90;;;;;;4991762;28;93021;-41
2023/11/04 05:57:04;;;;;;;;;;;14.40;69.00;;;;;;4989674;28;94609;-41
2023/11/04 05:59:30;;;;;;;;;;;14.40;68.90;;;;;;4988343;28;92081;-41
2023/11/04 06:01:55;;;;;;;;;;;14.40;68.90;;;;;;4990132;28;93639;-41
2023/11/04 06:04:21;;;;;;;;;;;14.40;68.90;;;;;;4986732;28;92358;-41
2023/11/04 06:06:47;;;;;;;;;;;14.40;68.80;;;;;;4989114;28;93330;-41
2023/11/04 06:09:13;;;;;;;;;;;14.40;69.00;;;;;;4991817;28;94017;-42
2023/11/04 06:11:39;;;;;;;;;;;14.40;68.70;;;;;;4988713;28;92231;-41
2023/11/04 06:14:04;;;;;;;;;;;14.40;69.00;;;;;;4988199;28;91462;-41
2023/11/04 06:16:33;;;;;;;;;;;14.40;69.00;;;;;;4990875;28;92154;-41
2023/11/04 06:18:59;;;;;;;;;;;14.40;68.90;;;;;;4988567;28;92244;-41
2023/11/04 06:21:25;;;;;;;;;;;14.40;68.80;;;;;;4992538;28;93020;-41
2023/11/04 06:23:50;;;;;;;;;;;14.40;68.70;;;;;;4987741;28;93698;-41
2023/11/04 06:26:22;;;;;;;;;;;14.40;68.80;;;;;;4989087;28;92206;-41
2023/11/04 06:28:48;;;;;;;;;;;14.40;68.80;;;;;;4990407;28;94002;-41
2023/11/04 06:31:13;;;;;;;;;;;14.40;68.80;;;;;;4985767;28;93123;-43
2023/11/04 06:33:39;;;;;;;;;;;14.40;68.80;;;;;;4986906;28;92760;-41
2023/11/04 06:36:05;;;;;;;;;;;14.40;68.70;;;;;;4987847;28;92521;-42
2023/11/04 06:38:30;;;;;;;;;;;14.40;68.70;;;;;;4992441;28;92501;-44
2023/11/04 06:40:56;;;;;;;;;;;14.40;68.90;;;;;;4990041;28;92187;-41
2023/11/04 06:43:21;;;;;;;;;;;14.40;68.70;;;;;;4986451;28;93241;-42
2023/11/04 06:45:47;;;;;;;;;;;14.40;68.70;;;;;;4987124;28;93119;-42
2023/11/04 06:48:12;;;;;;;;;;;14.40;68.60;;;;;;4988882;28;93449;-41
2023/11/04 06:50:38;;;;;;;;;;;14.40;68.80;;;;;;4985368;28;93253;-41
2023/11/04 06:53:03;;;;;;;;;;;14.40;69.00;;;;;;4988604;28;92320;-41
2023/11/04 06:55:32;;;;;;;;;;;14.30;68.60;;;;;;4988070;28;92479;-41
2023/11/04 06:57:58;;;;;;;;;;;14.30;68.70;;;;;;4989093;28;94525;-41
2023/11/04 07:00:24;;;;;;;;;;;14.40;68.80;;;;;;4990731;28;93800;-41
2023/11/04 07:02:49;;;;;;;;;;;14.30;68.70;;;;;;4983549;28;93738;-41
2023/11/04 07:05:15;;;;;;;;;;;14.30;68.70;;;;;;4990572;28;92652;-41
2023/11/04 07:07:41;;;;;;;;;;;14.30;68.70;;;;;;4990113;28;92500;-41
2023/11/04 07:10:09;;;;;;;;;;;14.30;68.70;;;;;;4987291;28;93983;-41
2023/11/04 07:12:35;;;;;;;;;;;14.30;68.70;;;;;;4987441;28;92236;-41
2023/11/04 07:15:06;;;;;;;;;;;14.30;68.80;;;;;;4988902;28;93848;-41
2023/11/04 07:17:32;;;;;;;;;;;14.30;68.70;;;;;;4989182;28;93677;-41
2023/11/04 07:19:57;;;;;;;;;;;14.30;68.80;;;;;;4989334;28;92246;-41
2023/11/04 07:22:23;;;;;;;;;;;14.30;68.70;;;;;;4989580;28;92037;-41
2023/11/04 07:24:49;;;;;;;;;;;14.30;68.70;;;;;;4987716;28;92123;-41
2023/11/04 07:27:14;;;;;;;;;;;14.30;68.80;;;;;;4987015;28;92379;-41
2023/11/04 07:29:40;;;;;;;;;;;14.30;68.80;;;;;;4983056;28;92995;-41
2023/11/04 07:32:06;;;;;;;;;;;14.30;68.70;;;;;;4989540;28;92099;-41
2023/11/04 07:34:33;;;;;;;;;;;14.30;68.70;;;;;;4987625;28;93072;-41
2023/11/04 07:37:00;;;;;;;;;;;14.30;68.70;;;;;;4984582;28;93016;-40
2023/11/04 07:39:27;;;;;;;;;;;14.30;68.60;;;;;;4985831;28;92645;-41
2023/11/04 07:41:53;;;;;;;;;;;14.20;68.70;;;;;;4988032;28;93897;-41
2023/11/04 07:44:18;;;;;;;;;;;14.20;68.80;;;;;;4989486;28;93136;-41
2023/11/04 07:46:44;;;;;;;;;;;14.20;68.90;;;;;;4990711;28;92611;-41
2023/11/04 07:49:10;;;;;;;;;;;14.20;68.70;;;;;;4985248;28;92969;-41
2023/11/04 07:51:35;;;;;;;;;;;14.20;68.70;;;;;;4987456;28;91445;-43
2023/11/04 07:54:01;;;;;;;;;;;14.20;68.70;;;;;;4990169;28;92593;-41
2023/11/04 07:56:27;;;;;;;;;;;14.20;68.70;;;;;;4986360;28;94716;-41
2023/11/04 07:58:52;;;;;;;;;;;14.20;68.50;;;;;;4986838;28;93148;-41
2023/11/04 08:01:19;;;;;;;;;;;14.30;68.70;;;;;;4988951;28;93430;-41
2023/11/04 08:03:45;;;;;;;;;;;14.20;68.50;;;;;;4987094;28;94816;-41
2023/11/04 08:06:11;;;;;;;;;;;14.20;68.80;;;;;;4993795;28;92500;-41
2023/11/04 08:08:36;;;;;;;;;;;14.20;68.70;;;;;;4986414;28;93148;-41
2023/11/04 08:11:03;;;;;;;;;;;14.20;68.80;;;;;;4994034;28;92259;-41
2023/11/04 08:13:28;;;;;;;;;;;14.20;68.80;;;;;;4985287;28;93873;-41
2023/11/04 08:15:54;;;;;;;;;;;14.20;68.50;;;;;;4991794;28;93460;-41
2023/11/04 08:18:22;;;;;;;;;;;14.20;68.80;;;;;;4989456;28;92167;-41
2023/11/04 08:20:48;;;;;;;;;;;14.20;68.50;;;;;;4991932;28;92495;-41
2023/11/04 08:23:14;;;;;;;;;;;14.20;68.60;;;;;;4989728;28;96001;-41
2023/11/04 08:25:40;;;;;;;;;;;14.20;68.40;;;;;;4989857;28;92805;-41
2023/11/04 08:28:05;;;;;;;;;;;14.10;68.70;;;;;;4989388;28;93028;-41
2023/11/04 08:30:31;;;;;;;;;;;14.10;68.90;;;;;;4991521;28;92159;-40
2023/11/04 08:32:56;;;;;;;;;;;14.10;68.70;;;;;;4988898;28;92704;-41
2023/11/04 08:35:22;;;;;;;;;;;14.10;68.80;;;;;;4985871;28;93766;-41
2023/11/04 08:37:48;;;;;;;;;;;14.10;68.80;;;;;;4989058;28;92224;-41
2023/11/04 08:40:14;;;;;;;;;;;14.10;68.70;;;;;;4992885;28;93854;-41
2023/11/04 08:42:40;;;;;;;;;;;14.10;68.80;;;;;;4984128;28;94582;-41
2023/11/04 08:45:10;;;;;;;;;;;14.10;68.80;;;;;;4987186;28;92823;-41
2023/11/04 08:47:36;;;;;;;;;;;14.10;68.80;;;;;;4993114;28;93896;-41
2023/11/04 08:50:03;;;;;;;;;;;14.10;68.70;;;;;;4991618;28;92318;-41
2023/11/04 08:52:28;;;;;;;;;;;14.20;68.60;;;;;;4986325;28;92375;-41
2023/11/04 08:54:54;;;;;;;;;;;14.10;68.70;;;;;;4985114;28;93173;-41
2023/11/04 08:57:20;;;;;;;;;;;14.10;68.60;;;;;;4991921;28;92338;-41
2023/11/04 08:59:46;;;;;;;;;;;14.10;68.80;;;;;;4989648;28;93220;-41
2023/11/04 09:02:12;;;;;;;;;;;14.10;68.70;;;;;;4989571;28;94635;-41
2023/11/04 09:04:37;;;;;;;;;;;14.10;68.60;;;;;;4985179;28;91439;-41
2023/11/04 09:07:03;;;;;;;;;;;14.10;68.60;;;;;;4991781;28;92013;-41
2023/11/04 09:09:29;;;;;;;;;;;14.10;68.60;;;;;;4991202;28;93301;-41
2023/11/04 09:11:55;;;;;;;;;;;14.10;68.50;;;;;;4988612;28;94205;-41
2023/11/04 09:14:22;;;;;;;;;;;14.10;68.40;;;;;;4986140;28;93987;-41
2023/11/04 09:16:49;;;;;;;;;;;14.10;68.60;;;;;;4990059;28;92119;-41
2023/11/04 09:19:15;;;;;;;;;;;14.10;68.40;;;;;;4990407;28;93664;-41
2023/11/04 09:21:40;;;;;;;;;;;14.10;68.60;;;;;;4987712;28;92836;-41
2023/11/04 09:24:06;;;;;;;;;;;14.10;68.60;;;;;;4988495;28;93327;-41
2023/11/04 09:26:32;;;;;;;;;;;14.10;68.40;;;;;;4989858;28;92439;-41
2023/11/04 09:28:58;;;;;;;;;;;14.10;68.50;;;;;;4993505;28;92273;-41
2023/11/04 09:31:23;;;;;;;;;;;14.10;68.50;;;;;;4991629;28;92197;-41
2023/11/04 09:33:49;;;;;;;;;;;14.10;68.50;;;;;;4987824;28;93203;-41
2023/11/04 09:36:14;;;;;;;;;;;14.00;68.50;;;;;;4989737;28;93179;-42
2023/11/04 09:38:40;;;;;;;;;;;14.00;68.40;;;;;;4986684;28;93217;-41
2023/11/04 09:41:06;;;;;;;;;;;14.00;68.60;;;;;;4985725;28;94989;-41
2023/11/04 09:43:31;;;;;;;;;;;14.00;68.50;;;;;;4987042;28;92200;-41
2023/11/04 09:45:57;;;;;;;;;;;14.00;68.40;;;;;;4992466;28;92414;-41
2023/11/04 09:48:23;;;;;;;;;;;14.00;68.60;;;;;;4985325;28;94393;-42
2023/11/04 09:50:51;;;;;;;;;;;14.00;68.40;;;;;;4990273;28;92350;-41
2023/11/04 09:53:23;;;;;;;;;;;14.00;68.60;;;;;;4991303;28;92370;-41
2023/11/04 09:55:51;;;;;;;;;;;14.00;68.50;;;;;;4992164;28;92169;-41
2023/11/04 09:58:17;;;;;;;;;;;14.00;68.40;;;;;;4987694;28;94089;-41
2023/11/04 10:00:43;;;;;;;;;;;14.00;68.40;;;;;;4985735;28;94393;-41
2023/11/04 10:03:08;;;;;;;;;;;14.00;68.50;;;;;;4989594;28;92903;-41
2023/11/04 10:05:34;;;;;;;;;;;14.00;68.50;;;;;;4990489;28;92236;-41
2023/11/04 10:08:00;;;;;;;;;;;14.00;68.50;;;;;;4987627;28;95106;-41
2023/11/04 10:10:25;;;;;;;;;;;14.00;69.00;;;;;;4986769;28;92147;-41
2023/11/04 10:12:51;;;;;;;;;;;14.00;68.60;;;;;;4987797;28;92064;-41
2023/11/04 10:15:17;;;;;;;;;;;14.00;68.40;;;;;;4989134;28;93152;-41
2023/11/04 10:17:42;;;;;;;;;;;14.00;68.40;;;;;;4978126;28;92924;-41
2023/11/04 10:20:11;;;;;;;;;;;14.00;68.60;;;;;;4987456;28;94455;-41
2023/11/04 10:22:39;;;;;;;;;;;14.00;68.40;;;;;;4989233;28;92688;-41
2023/11/04 10:25:07;;;;;;;;;;;14.00;68.40;;;;;;4984374;28;93970;-41
2023/11/04 10:27:33;;;;;;;;;;;14.00;68.50;;;;;;4983038;28;93003;-41
2023/11/04 10:29:58;;;;;;;;;;;14.00;68.50;;;;;;4988351;28;92160;-41
2023/11/04 10:32:27;;;;;;;;;;;13.90;68.70;;;;;;4990869;28;92356;-41
2023/11/04 10:34:54;;;;;;;;;;;13.90;68.40;;;;;;4989891;28;93275;-41
2023/11/04 10:37:20;;;;;;;;;;;13.90;68.60;;;;;;4986333;28;93126;-41
2023/11/04 10:39:47;;;;;;;;;;;13.90;68.50;;;;;;4987753;28;93214;-41
2023/11/04 10:42:13;;;;;;;;;;;13.90;68.60;;;;;;4991561;28;91617;-41
2023/11/04 10:44:40;;;;;;;;;;;13.90;68.80;;;;;;4991433;28;92958;-41
2023/11/04 10:47:24;;;;;;;;;;;14.00;68.50;;;;;;4984488;28;93180;-41
2023/11/04 10:50:09;;;;;;;;;;;13.90;68.60;;;;;;4986772;28;93094;-41
2023/11/04 10:52:36;;;;;;;;;;;14.00;68.70;;;;;;4983354;28;94843;-41
2023/11/04 10:55:14;;;;;;;;;;;14.00;68.40;;;;;;4991661;28;92680;-41
2023/11/04 10:57:46;;;;;;;;;;;13.90;68.60;;;;;;4992635;28;92036;-41
2023/11/04 11:00:14;;;;;;;;;;;13.90;68.80;;;;;;4987280;28;93197;-41
2023/11/04 11:02:40;;;;;;;;;;;13.90;68.60;;;;;;4987313;28;92527;-41
2023/11/04 11:05:08;;;;;;;;;;;13.90;68.90;;;;;;4985021;28;93747;-41
2023/11/04 11:07:35;;;;;;;;;;;13.90;68.60;;;;;;4986655;28;95330;-41
2023/11/04 11:10:00;;;;;;;;;;;13.90;68.80;;;;;;4987545;28;93243;-41
2023/11/04 11:12:26;;;;;;;;;;;13.90;68.80;;;;;;4990657;28;92147;-42
2023/11/04 11:14:53;;;;;;;;;;;13.80;69.00;;;;;;4981806;28;93972;-42
2023/11/04 11:17:28;;;;;;;;;;;13.90;68.70;;;;;;4995086;28;92144;-42
2023/11/04 11:19:53;;;;;;;;;;;13.90;68.80;;;;;;4986703;28;92503;-41
2023/11/04 11:22:25;;;;;;;;;;;13.90;68.70;;;;;;4985903;28;94455;-41
2023/11/04 11:24:53;;;;;;;;;;;13.90;68.80;;;;;;4984936;28;93935;-42
2023/11/04 11:27:19;;;;;;;;;;;13.90;68.60;;;;;;4987664;28;93169;-41
2023/11/04 11:29:46;;;;;;;;;;;13.80;68.70;;;;;;4985185;28;92372;-41
2023/11/04 11:32:11;;;;;;;;;;;13.80;68.70;;;;;;4987500;28;93994;-41
2023/11/04 11:34:49;;;;;;;;;;;13.80;68.80;;;;;;4986783;28;93151;-41
2023/11/04 11:37:19;;;;;;;;;;;13.80;68.90;;;;;;4989872;28;92167;-41
2023/11/04 11:39:45;;;;;;;;;;;13.80;68.60;;;;;;4988986;28;93922;-43
2023/11/04 11:42:11;;;;;;;;;;;13.80;68.90;;;;;;4989568;28;93040;-41
2023/11/04 11:44:37;;;;;;;;;;;13.80;68.90;;;;;;4986309;28;92942;-41
2023/11/04 11:47:03;;;;;;;;;;;13.80;68.70;;;;;;4986899;28;94472;-42
2023/11/04 11:49:31;;;;;;;;;;;13.80;69.10;;;;;;4987475;28;92370;-42
2023/11/04 11:51:56;;;;;;;;;;;13.80;68.70;;;;;;4985995;28;92380;-41
2023/11/04 11:54:22;;;;;;;;;;;13.80;69.00;;;;;;4988610;28;93239;-41
2023/11/04 11:56:48;;;;;;;;;;;13.80;69.00;;;;;;4984863;28;91800;-41
2023/11/04 11:59:14;;;;;;;;;;;13.80;69.00;;;;;;4985307;28;92193;-41
2023/11/04 12:01:39;;;;;;;;;;;13.80;68.90;;;;;;4984269;28;92963;-41
2023/11/04 12:04:05;;;;;;;;;;;13.80;69.10;;;;;;4990837;28;93381;-42
2023/11/04 12:06:31;;;;;;;;;;;13.80;69.10;;;;;;4985929;28;93109;-41
2023/11/04 12:08:57;;;;;;;;;;;13.80;69.20;;;;;;4986016;28;92243;-41
2023/11/04 12:11:26;;;;;;;;;;;13.70;69.10;;;;;;4988118;28;93976;-41
2023/11/04 12:13:52;;;;;;;;;;;13.80;69.30;;;;;;4986315;28;93247;-41
2023/11/04 12:16:17;;;;;;;;;;;13.80;69.00;;;;;;4985572;28;93936;-41
2023/11/04 12:18:44;;;;;;;;;;;13.70;68.90;;;;;;4984201;28;92456;-41
2023/11/04 12:21:10;;;;;;;;;;;13.80;69.20;;;;;;4983938;28;92023;-41
2023/11/04 12:23:36;;;;;;;;;;;13.80;69.00;;;;;;4988144;28;92403;-41
2023/11/04 12:26:02;;;;;;;;;;;13.80;69.10;;;;;;4990475;28;92416;-41
2023/11/04 12:28:28;;;;;;;;;;;13.80;69.00;;;;;;4985385;28;93190;-42
2023/11/04 12:31:00;;;;;;;;;;;13.70;69.60;;;;;;4986009;28;94977;-41
2023/11/04 12:33:25;;;;;;;;;;;13.70;69.20;;;;;;4988099;28;94421;-41
2023/11/04 12:36:01;;;;;;;;;;;13.70;69.10;;;;;;4986316;28;92193;-41
2023/11/04 12:38:27;;;;;;;;;;;13.70;69.10;;;;;;4983630;28;92167;-42
2023/11/04 12:40:53;;;;;;;;;;;13.70;69.20;;;;;;4988522;28;94364;-42
2023/11/04 12:43:20;;;;;;;;;;;13.80;69.20;;;;;;4989097;28;92261;-41
2023/11/04 12:45:46;;;;;;;;;;;13.80;69.20;;;;;;4990994;28;91767;-41
2023/11/04 12:48:12;;;;;;;;;;;13.70;69.10;;;;;;4983443;28;92522;-42
2023/11/04 12:50:37;;;;;;;;;;;13.80;69.20;;;;;;4988970;28;92344;-41
2023/11/04 12:53:03;;;;;;;;;;;13.70;69.00;;;;;;4991371;28;94256;-41
2023/11/04 12:55:29;;;;;;;;;;;13.70;69.10;;;;;;4988287;28;92352;-41
2023/11/04 12:57:54;;;;;;;;;;;13.70;69.10;;;;;;4990983;28;93302;-41
2023/11/04 13:00:20;;;;;;;;;;;13.70;69.20;;;;;;4990377;28;93181;-41
2023/11/04 13:02:45;;;;;;;;;;;13.70;69.20;;;;;;4992003;28;92531;-41
2023/11/04 13:05:11;;;;;;;;;;;13.70;69.30;;;;;;4994280;28;93638;-41
2023/11/04 13:07:37;;;;;;;;;;;13.70;69.20;;;;;;4988527;28;93068;-41
2023/11/04 13:10:05;;;;;;;;;;;13.70;69.30;;;;;;4990320;28;92608;-41
2023/11/04 13:12:30;;;;;;;;;;;13.70;69.90;;;;;;4990579;28;93963;-41
2023/11/04 13:14:56;;;;;;;;;;;13.70;69.10;;;;;;4988182;28;93082;-41
2023/11/04 13:17:22;;;;;;;;;;;13.70;69.30;;;;;;4987527;28;93088;-41
2023/11/04 13:19:48;;;;;;;;;;;13.70;69.30;;;;;;4991892;28;93586;-41
2023/11/04 13:22:13;;;;;;;;;;;13.70;69.30;;;;;;4993396;28;92205;-42
2023/11/04 13:24:39;;;;;;;;;;;13.70;69.10;;;;;;4989876;28;92287;-42
2023/11/04 13:27:05;;;;;;;;;;;13.70;69.60;;;;;;4987454;28;93093;-41
2023/11/04 13:29:30;;;;;;;;;;;13.70;69.50;;;;;;4992456;28;92050;-41
2023/11/04 13:31:59;;;;;;;;;;;13.60;69.30;;;;;;4988834;28;93903;-41
2023/11/04 13:34:24;;;;;;;;;;;13.70;69.30;;;;;;4987214;28;92206;-42
2023/11/04 13:36:50;;;;;;;;;;;13.60;69.40;;;;;;4987404;28;92117;-41
2023/11/04 13:39:17;;;;;;;;;;;13.60;69.20;;;;;;4990636;28;94427;-41
2023/11/04 13:41:42;;;;;;;;;;;13.60;69.30;;;;;;4987454;28;95025;-41
2023/11/04 13:44:08;;;;;;;;;;;13.60;69.30;;;;;;4986816;28;93520;-41
2023/11/04 13:46:34;;;;;;;;;;;13.70;69.20;;;;;;4987995;28;93197;-41
2023/11/04 13:49:01;;;;;;;;;;;13.70;69.20;;;;;;4991590;28;92666;-42
2023/11/04 13:51:27;;;;;;;;;;;13.70;69.20;;;;;;4989198;28;93874;-42
2023/11/04 13:53:52;;;;;;;;;;;13.70;69.30;;;;;;4984965;28;92881;-42
2023/11/04 13:56:18;;;;;;;;;;;13.60;69.10;;;;;;4988346;28;92532;-42
2023/11/04 13:58:43;;;;;;;;;;;13.60;69.00;;;;;;4991441;28;91589;-42
2023/11/04 14:01:09;;;;;;;;;;;13.60;69.10;;;;;;4986159;28;92253;-42
2023/11/04 14:03:35;;;;;;;;;;;13.60;69.00;;;;;;4987443;28;92663;-44
2023/11/04 14:06:00;;;;;;;;;;;13.60;69.20;;;;;;4988636;28;94074;-41
2023/11/04 14:08:26;;;;;;;;;;;13.60;69.30;;;;;;4989963;28;92158;-41
2023/11/04 14:10:53;;;;;;;;;;;13.60;69.20;;;;;;4984121;28;92389;-42